Time;durP1;ratioP1;P1;durP2;ratioP2;P2;SDS_P1;SDS_P2;PMS_P1;PMS_P2;Temp;Humidity;BMP_temperature;BMP_pressure;BME280_temperature;BME280_humidity;BME280_pressure;Samples;Min_cycle;Max_cycle;Signal;HPM_P1;HPM_P2
2022/06/22 00:00:35;;;;;;;5.00;4.03;;;;;;;;;;5038164;28;20025;-73
2022/06/22 00:03:01;;;;;;;7.72;4.43;;;;;;;;;;5063031;28;20024;-73
2022/06/22 00:05:29;;;;;;;9.13;5.03;;;;;;;;;;5038438;28;20024;-73
2022/06/22 00:07:57;;;;;;;5.25;4.43;;;;;;;;;;5058392;28;20028;-73
2022/06/22 00:10:28;;;;;;;5.38;4.35;;;;;;;;;;5043129;28;20021;-73
2022/06/22 00:12:54;;;;;;;7.97;5.10;;;;;;;;;;5055295;28;20477;-73
2022/06/22 00:15:32;;;;;;;6.13;5.05;;;;;;;;;;5056616;28;20159;-74
2022/06/22 00:17:57;;;;;;;5.10;4.13;;;;;;;;;;5059563;28;20471;-73
2022/06/22 00:20:27;;;;;;;5.32;4.78;;;;;;;;;;5058532;28;20032;-73
2022/06/22 00:22:57;;;;;;;5.13;4.70;;;;;;;;;;5061758;28;20094;-73
2022/06/22 00:25:22;;;;;;;6.18;4.43;;;;;;;;;;5056130;28;20516;-73
2022/06/22 00:27:47;;;;;;;10.82;5.22;;;;;;;;;;5043198;28;20032;-73
2022/06/22 00:30:14;;;;;;;5.13;4.63;;;;;;;;;;5054935;28;20401;-73
2022/06/22 00:32:52;;;;;;;6.95;4.93;;;;;;;;;;5063913;28;20038;-73
2022/06/22 00:35:33;;;;;;;6.30;4.63;;;;;;;;;;5058529;28;20055;-73
2022/06/22 00:37:58;;;;;;;6.88;5.28;;;;;;;;;;5054708;28;20040;-73
2022/06/22 00:40:24;;;;;;;6.90;5.43;;;;;;;;;;5059771;28;20024;-73
2022/06/22 00:42:50;;;;;;;6.13;4.90;;;;;;;;;;5060233;28;20553;-73
2022/06/22 00:45:22;;;;;;;7.25;4.50;;;;;;;;;;5058676;28;20017;-73
2022/06/22 00:48:07;;;;;;;5.18;4.47;;;;;;;;;;5060241;28;20041;-73
2022/06/22 00:50:39;;;;;;;7.40;4.63;;;;;;;;;;5057972;28;20025;-73
2022/06/22 00:53:22;;;;;;;5.10;4.60;;;;;;;;;;5045586;28;20655;-73
2022/06/22 00:56:20;;;;;;;7.30;4.55;;;;;;;;;;5039198;28;20029;-73
2022/06/22 00:58:52;;;;;;;5.90;5.28;;;;;;;;;;5008572;28;20047;-73
2022/06/22 01:01:21;;;;;;;7.05;5.07;;;;;;;;;;5039733;28;20021;-73
2022/06/22 01:03:50;;;;;;;5.97;4.95;;;;;;;;;;5060387;28;20340;-73
2022/06/22 01:06:27;;;;;;;8.38;5.43;;;;;;;;;;5058952;28;20157;-73
2022/06/22 01:09:03;;;;;;;9.95;5.55;;;;;;;;;;5059494;28;20073;-73
2022/06/22 01:14:28;;;;;;;11.23;5.85;;;;;;;;;;5059168;28;20406;-73
2022/06/22 01:16:55;;;;;;;8.93;5.85;;;;;;;;;;5058263;28;20031;-72
2022/06/22 01:19:20;;;;;;;8.55;5.90;;;;;;;;;;5058808;28;20020;-73
2022/06/22 01:21:50;;;;;;;5.75;5.10;;;;;;;;;;5056918;28;20024;-73
2022/06/22 01:24:39;;;;;;;7.80;4.88;;;;;;;;;;5061763;28;20031;-73
2022/06/22 01:27:23;;;;;;;7.05;4.82;;;;;;;;;;5051516;28;20028;-73
2022/06/22 01:29:53;;;;;;;5.63;4.72;;;;;;;;;;5058141;28;20484;-73
2022/06/22 01:32:36;;;;;;;8.77;5.47;;;;;;;;;;5046816;28;20089;-73
2022/06/22 01:35:25;;;;;;;7.72;5.95;;;;;;;;;;5057026;28;20033;-72
2022/06/22 01:37:50;;;;;;;5.70;4.60;;;;;;;;;;5045374;28;20041;-73
2022/06/22 01:40:17;;;;;;;5.97;5.05;;;;;;;;;;5050084;28;20136;-73
2022/06/22 01:42:45;;;;;;;6.00;5.40;;;;;;;;;;5063951;28;20020;-73
2022/06/22 01:45:19;;;;;;;5.32;4.82;;;;;;;;;;5049463;28;20029;-73
2022/06/22 01:47:50;;;;;;;8.45;5.40;;;;;;;;;;5054023;28;20028;-72
2022/06/22 01:50:24;;;;;;;7.45;5.35;;;;;;;;;;5059295;28;20029;-73
2022/06/22 01:52:56;;;;;;;10.20;6.35;;;;;;;;;;5061522;28;20066;-73
2022/06/22 01:55:21;;;;;;;9.82;6.03;;;;;;;;;;5057056;28;20111;-73
2022/06/22 01:57:51;;;;;;;8.02;6.22;;;;;;;;;;5061457;28;20020;-73
2022/06/22 02:00:18;;;;;;;10.32;6.50;;;;;;;;;;5063986;28;20103;-73
2022/06/22 02:03:02;;;;;;;7.30;6.25;;;;;;;;;;5054531;28;20498;-73
2022/06/22 02:05:33;;;;;;;8.48;5.88;;;;;;;;;;5060455;28;20042;-73
2022/06/22 02:08:15;;;;;;;6.00;5.38;;;;;;;;;;5060149;28;20056;-73
2022/06/22 02:10:49;;;;;;;11.38;6.80;;;;;;;;;;5060652;28;20018;-73
2022/06/22 02:13:14;;;;;;;;;;;;;;;;;;5059161;28;20104;-73
2022/06/22 02:15:39;;;;;;;9.82;5.88;;;;;;;;;;5057398;28;19913;-73
2022/06/22 02:18:17;;;;;;;7.40;6.25;;;;;;;;;;5053694;28;20024;-73
2022/06/22 02:20:42;;;;;;;7.63;5.72;;;;;;;;;;5060784;28;20473;-73
2022/06/22 02:23:10;;;;;;;10.13;5.60;;;;;;;;;;5059262;28;20033;-73
2022/06/22 02:25:38;;;;;;;17.83;7.97;;;;;;;;;;5041435;28;20466;-73
2022/06/22 02:28:03;;;;;;;11.25;7.10;;;;;;;;;;5057048;28;20023;-73
2022/06/22 02:30:28;;;;;;;11.95;7.00;;;;;;;;;;5061415;28;20024;-73
2022/06/22 02:32:54;;;;;;;9.40;6.55;;;;;;;;;;5043331;28;20127;-73
2022/06/22 02:35:19;;;;;;;10.38;6.15;;;;;;;;;;5064143;28;20021;-73
2022/06/22 02:37:47;;;;;;;11.85;7.35;;;;;;;;;;5059352;28;20107;-73
2022/06/22 02:40:16;;;;;;;9.05;6.50;;;;;;;;;;5061917;28;20103;-73
2022/06/22 02:45:25;;;;;;;9.73;6.72;;;;;;;;;;5063619;28;20028;-73
2022/06/22 02:47:51;;;;;;;10.87;6.97;;;;;;;;;;5061847;28;20036;-73
2022/06/22 02:50:35;;;;;;;9.18;6.80;;;;;;;;;;5057915;28;20277;-73
2022/06/22 02:53:01;;;;;;;11.23;7.25;;;;;;;;;;5060822;28;20041;-73
2022/06/22 02:55:29;;;;;;;11.20;7.13;;;;;;;;;;5064577;28;20032;-73
2022/06/22 02:57:54;;;;;;;12.48;7.68;;;;;;;;;;5044487;28;20378;-73
2022/06/22 03:00:21;;;;;;;11.25;7.43;;;;;;;;;;5056183;28;20070;-73
2022/06/22 03:02:47;;;;;;;13.38;6.93;;;;;;;;;;5061601;28;20341;-73
2022/06/22 03:05:13;;;;;;;12.43;6.93;;;;;;;;;;5055779;28;20033;-73
2022/06/22 03:07:39;;;;;;;9.75;7.13;;;;;;;;;;5063854;28;20030;-73
2022/06/22 03:10:07;;;;;;;9.85;6.53;;;;;;;;;;5055562;28;20066;-73
2022/06/22 03:12:32;;;;;;;11.30;6.95;;;;;;;;;;5055789;28;20048;-73
2022/06/22 03:15:00;;;;;;;14.07;7.63;;;;;;;;;;5040776;28;20067;-73
2022/06/22 03:17:29;;;;;;;12.40;7.50;;;;;;;;;;5058638;28;20024;-73
2022/06/22 03:20:00;;;;;;;13.60;7.88;;;;;;;;;;5058813;28;20474;-73
2022/06/22 03:22:27;;;;;;;11.77;7.70;;;;;;;;;;5057807;28;20032;-73
2022/06/22 03:25:02;;;;;;;10.75;7.10;;;;;;;;;;5060826;28;20084;-73
2022/06/22 03:27:30;;;;;;;9.52;6.63;;;;;;;;;;5057771;28;20017;-73
2022/06/22 03:29:58;;;;;;;8.88;6.80;;;;;;;;;;5062574;28;20107;-73
2022/06/22 03:32:39;;;;;;;13.85;7.45;;;;;;;;;;5062733;28;20036;-73
2022/06/22 03:35:15;;;;;;;9.27;7.25;;;;;;;;;;5058628;28;20036;-73
2022/06/22 03:37:47;;;;;;;10.23;7.75;;;;;;;;;;5061811;28;20032;-73
2022/06/22 03:40:19;;;;;;;12.15;8.07;;;;;;;;;;5058133;28;20032;-73
2022/06/22 03:42:48;;;;;;;13.68;8.18;;;;;;;;;;5058267;28;20024;-73
2022/06/22 03:45:19;;;;;;;14.27;7.60;;;;;;;;;;5049462;28;20111;-73
2022/06/22 03:47:50;;;;;;;13.13;8.35;;;;;;;;;;5042013;28;20036;-73
2022/06/22 03:50:21;;;;;;;10.30;7.40;;;;;;;;;;5058266;28;20124;-73
2022/06/22 03:52:53;;;;;;;11.73;8.00;;;;;;;;;;5056179;28;20095;-73
2022/06/22 03:55:21;;;;;;;12.32;8.52;;;;;;;;;;5058738;28;20032;-73
2022/06/22 03:57:49;;;;;;;13.63;8.13;;;;;;;;;;5058222;28;20770;-73
2022/06/22 04:00:15;;;;;;;11.55;8.10;;;;;;;;;;5052227;28;20036;-73
2022/06/22 04:02:41;;;;;;;12.32;7.75;;;;;;;;;;5058743;28;20016;-73
2022/06/22 04:05:06;;;;;;;10.50;7.95;;;;;;;;;;5048576;28;20032;-73
2022/06/22 04:07:33;;;;;;;14.68;8.05;;;;;;;;;;5055053;28;20055;-73
2022/06/22 04:09:58;;;;;;;14.00;8.05;;;;;;;;;;5062680;28;20051;-73
2022/06/22 04:12:32;;;;;;;12.97;9.93;;;;;;;;;;5059435;28;20331;-73
2022/06/22 04:15:09;;;;;;;17.08;8.98;;;;;;;;;;5060779;28;20388;-73
2022/06/22 04:17:39;;;;;;;15.43;8.82;;;;;;;;;;5060081;28;20548;-73
2022/06/22 04:20:07;;;;;;;17.52;9.60;;;;;;;;;;5054911;28;20037;-73
2022/06/22 04:22:34;;;;;;;17.42;9.63;;;;;;;;;;5061740;28;20034;-73
2022/06/22 04:25:11;;;;;;;15.23;10.15;;;;;;;;;;5061528;28;20016;-73
2022/06/22 04:27:42;;;;;;;18.75;9.05;;;;;;;;;;5059197;28;20027;-73
2022/06/22 04:30:21;;;;;;;15.82;9.00;;;;;;;;;;5061995;28;20524;-73
2022/06/22 04:32:53;;;;;;;20.02;8.82;;;;;;;;;;5061730;28;20035;-73
2022/06/22 04:35:40;;;;;;;17.38;10.57;;;;;;;;;;5061261;28;20311;-73
2022/06/22 04:38:26;;;;;;;17.38;9.70;;;;;;;;;;5059970;28;20035;-73
2022/06/22 04:41:10;;;;;;;19.40;10.30;;;;;;;;;;5059930;28;20102;-72
2022/06/22 04:43:36;;;;;;;22.30;10.48;;;;;;;;;;5059424;28;20021;-73
2022/06/22 04:46:01;;;;;;;22.88;11.52;;;;;;;;;;5061598;28;20029;-72
2022/06/22 04:48:29;;;;;;;18.85;11.07;;;;;;;;;;5059044;28;20040;-73
2022/06/22 04:51:02;;;;;;;27.73;11.70;;;;;;;;;;5059182;28;20039;-73
2022/06/22 04:53:27;;;;;;;19.33;11.95;;;;;;;;;;5040374;28;20382;-73
2022/06/22 04:55:53;;;;;;;23.13;11.60;;;;;;;;;;5044213;28;20451;-73
2022/06/22 04:58:28;;;;;;;25.20;12.25;;;;;;;;;;5057309;28;20106;-72
2022/06/22 05:00:53;;;;;;;19.42;11.32;;;;;;;;;;5058326;28;20020;-74
2022/06/22 05:03:18;;;;;;;22.00;12.83;;;;;;;;;;5058492;28;20433;-72
2022/06/22 05:05:43;;;;;;;24.77;12.17;;;;;;;;;;5059623;28;20352;-74
2022/06/22 05:08:19;;;;;;;19.77;11.00;;;;;;;;;;5061013;28;20272;-73
2022/06/22 05:10:53;;;;;;;19.23;11.85;;;;;;;;;;5056872;28;20097;-73
2022/06/22 05:13:37;;;;;;;18.88;11.25;;;;;;;;;;5061066;28;20513;-73
2022/06/22 05:16:04;;;;;;;24.60;13.35;;;;;;;;;;5054825;28;20024;-72
2022/06/22 05:18:31;;;;;;;27.13;11.60;;;;;;;;;;5058874;28;20464;-74
2022/06/22 05:20:59;;;;;;;20.23;11.77;;;;;;;;;;5058626;28;20035;-74
2022/06/22 05:23:25;;;;;;;25.33;12.63;;;;;;;;;;5062547;28;20048;-74
2022/06/22 05:25:51;;;;;;;20.63;12.65;;;;;;;;;;5057977;28;20077;-74
2022/06/22 05:28:37;;;;;;;20.35;12.73;;;;;;;;;;5067673;28;20032;-74
2022/06/22 05:31:07;;;;;;;21.80;12.52;;;;;;;;;;5055286;28;20382;-74
2022/06/22 05:33:33;;;;;;;22.98;12.52;;;;;;;;;;5065686;28;20481;-74
2022/06/22 05:36:01;;;;;;;17.75;11.55;;;;;;;;;;5065223;28;20039;-74
2022/06/22 05:38:27;;;;;;;21.92;12.00;;;;;;;;;;5055202;28;20029;-74
2022/06/22 05:40:53;;;;;;;16.00;10.88;;;;;;;;;;5066134;28;20154;-74
2022/06/22 05:43:19;;;;;;;20.23;12.27;;;;;;;;;;5069026;28;20103;-75
2022/06/22 05:45:46;;;;;;;17.42;11.60;;;;;;;;;;5062602;28;20100;-75
2022/06/22 05:48:14;;;;;;;19.20;11.02;;;;;;;;;;5060333;28;20461;-74
2022/06/22 05:50:50;;;;;;;18.98;11.20;;;;;;;;;;5065494;28;20020;-74
2022/06/22 05:53:38;;;;;;;21.95;11.77;;;;;;;;;;5066334;28;20226;-74
2022/06/22 05:56:13;;;;;;;17.08;11.50;;;;;;;;;;5049430;28;20382;-75
2022/06/22 05:58:57;;;;;;;18.52;10.45;;;;;;;;;;5055983;28;20095;-71
2022/06/22 06:01:41;;;;;;;22.48;11.20;;;;;;;;;;5058770;28;20036;-74
2022/06/22 06:04:25;;;;;;;24.63;11.43;;;;;;;;;;5061350;28;20040;-75
2022/06/22 06:06:52;;;;;;;14.13;10.15;;;;;;;;;;5061560;28;20103;-75
2022/06/22 06:09:20;;;;;;;14.00;9.80;;;;;;;;;;5043568;28;20359;-74
2022/06/22 06:11:47;;;;;;;17.17;10.82;;;;;;;;;;5047674;28;20145;-74
2022/06/22 06:14:14;;;;;;;14.80;9.75;;;;;;;;;;5061009;28;20051;-75
2022/06/22 06:16:45;;;;;;;12.57;10.05;;;;;;;;;;5061745;28;20040;-74
2022/06/22 06:19:14;;;;;;;15.55;9.85;;;;;;;;;;5065128;28;20070;-74
2022/06/22 06:21:39;;;;;;;16.83;10.98;;;;;;;;;;5057070;28;20474;-73
2022/06/22 06:24:14;;;;;;;16.20;10.03;;;;;;;;;;5066451;28;20034;-74
2022/06/22 06:29:33;;;;;;;16.27;9.50;;;;;;;;;;5062163;28;20051;-74
2022/06/22 06:32:14;;;;;;;15.30;10.00;;;;;;;;;;5059324;28;20059;-74
2022/06/22 06:34:44;;;;;;;18.20;9.95;;;;;;;;;;5067663;28;20734;-72
2022/06/22 06:37:09;;;;;;;15.02;9.38;;;;;;;;;;5064516;28;20032;-75
2022/06/22 06:39:37;;;;;;;14.48;9.93;;;;;;;;;;5068391;28;20055;-74
2022/06/22 06:42:08;;;;;;;14.07;9.45;;;;;;;;;;5059570;28;20029;-74
2022/06/22 06:44:37;;;;;;;15.57;9.48;;;;;;;;;;5066122;28;20047;-74
2022/06/22 06:47:06;;;;;;;19.33;9.95;;;;;;;;;;5057387;28;20047;-74
2022/06/22 06:49:38;;;;;;;14.00;9.10;;;;;;;;;;5057424;28;20020;-75
2022/06/22 06:52:12;;;;;;;13.18;9.10;;;;;;;;;;5060527;28;20025;-73
2022/06/22 06:54:42;;;;;;;15.75;9.75;;;;;;;;;;5058362;28;20097;-73
2022/06/22 06:57:10;;;;;;;15.90;9.57;;;;;;;;;;5047663;28;20043;-73
2022/06/22 06:59:35;;;;;;;18.00;8.32;;;;;;;;;;5057353;28;20013;-74
2022/06/22 07:02:05;;;;;;;13.02;8.10;;;;;;;;;;5062101;28;20496;-74
2022/06/22 07:04:32;;;;;;;11.40;8.13;;;;;;;;;;5064781;28;20020;-74
2022/06/22 07:07:17;;;;;;;13.60;8.65;;;;;;;;;;5072670;28;20023;-74
2022/06/22 07:09:43;;;;;;;11.93;8.30;;;;;;;;;;5060601;28;20043;-75
2022/06/22 07:12:17;;;;;;;12.98;8.48;;;;;;;;;;5058573;28;20032;-73
2022/06/22 07:14:43;;;;;;;13.13;7.70;;;;;;;;;;5063482;28;20052;-73
2022/06/22 07:17:10;;;;;;;8.70;7.30;;;;;;;;;;5058450;28;20585;-73
2022/06/22 07:19:37;;;;;;;11.48;7.20;;;;;;;;;;5064836;28;20031;-74
2022/06/22 07:22:25;;;;;;;10.98;7.38;;;;;;;;;;5062815;28;20031;-73
2022/06/22 07:24:52;;;;;;;9.70;7.85;;;;;;;;;;5061506;28;20025;-74
2022/06/22 07:27:36;;;;;;;10.25;7.30;;;;;;;;;;5059394;28;20052;-71
2022/06/22 07:30:18;;;;;;;12.80;6.60;;;;;;;;;;5063089;28;20348;-72
2022/06/22 07:32:47;;;;;;;12.73;7.60;;;;;;;;;;5057886;28;20032;-71
2022/06/22 07:35:19;;;;;;;11.70;7.53;;;;;;;;;;5062423;28;20033;-71
2022/06/22 07:37:58;;;;;;;9.55;6.45;;;;;;;;;;5054402;28;20071;-73
2022/06/22 07:40:25;;;;;;;9.93;6.63;;;;;;;;;;5062192;28;20099;-72
2022/06/22 07:42:51;;;;;;;10.20;6.15;;;;;;;;;;5059932;28;20078;-72
2022/06/22 07:45:18;;;;;;;11.18;5.95;;;;;;;;;;5060050;28;20475;-72
2022/06/22 07:47:49;;;;;;;9.23;5.97;;;;;;;;;;5056988;28;20362;-72
2022/06/22 07:50:16;;;;;;;7.57;5.55;;;;;;;;;;5063289;28;20122;-73
2022/06/22 07:53:03;;;;;;;11.00;6.10;;;;;;;;;;5062023;28;20025;-73
2022/06/22 07:55:31;;;;;;;9.90;5.45;;;;;;;;;;5054056;28;20078;-71
2022/06/22 07:58:02;;;;;;;7.35;5.28;;;;;;;;;;5053934;28;20207;-72
2022/06/22 08:00:28;;;;;;;8.80;4.78;;;;;;;;;;5062264;28;20025;-72
2022/06/22 08:02:56;;;;;;;10.85;4.90;;;;;;;;;;5058009;28;20466;-74
2022/06/22 08:05:26;;;;;;;11.30;4.57;;;;;;;;;;5059810;28;20553;-72
2022/06/22 08:08:11;;;;;;;4.25;3.85;;;;;;;;;;5057825;28;20028;-72
2022/06/22 08:10:43;;;;;;;7.30;4.25;;;;;;;;;;5064515;28;20039;-73
2022/06/22 08:13:14;;;;;;;4.55;3.70;;;;;;;;;;5052711;28;20411;-73
2022/06/22 08:15:42;;;;;;;5.97;3.88;;;;;;;;;;5040626;28;20027;-72
2022/06/22 08:18:08;;;;;;;4.70;4.00;;;;;;;;;;5057183;28;20104;-72
2022/06/22 08:20:35;;;;;;;3.72;3.40;;;;;;;;;;5052662;28;20549;-73
2022/06/22 08:23:04;;;;;;;4.45;3.15;;;;;;;;;;5064064;28;20386;-73
2022/06/22 08:25:29;;;;;;;7.35;3.47;;;;;;;;;;5060200;28;20013;-72
2022/06/22 08:27:55;;;;;;;3.65;2.97;;;;;;;;;;5059446;28;20365;-70
2022/06/22 08:30:21;;;;;;;7.00;3.50;;;;;;;;;;5060552;28;20108;-70
2022/06/22 08:32:50;;;;;;;5.28;3.10;;;;;;;;;;5057730;28;20107;-71
2022/06/22 08:35:15;;;;;;;6.78;3.72;;;;;;;;;;5063227;28;20258;-73
2022/06/22 08:37:43;;;;;;;4.60;4.13;;;;;;;;;;5054860;28;20028;-73
2022/06/22 08:40:21;;;;;;;7.85;3.85;;;;;;;;;;5057315;28;20394;-73
2022/06/22 08:42:46;;;;;;;10.00;3.75;;;;;;;;;;5064798;28;20028;-73
2022/06/22 08:45:11;;;;;;;6.90;3.67;;;;;;;;;;5060910;28;20050;-72
2022/06/22 08:47:56;;;;;;;6.38;3.97;;;;;;;;;;5063683;28;20098;-72
2022/06/22 08:50:29;;;;;;;8.65;4.10;;;;;;;;;;5060951;28;20024;-72
2022/06/22 08:52:55;;;;;;;6.18;4.03;;;;;;;;;;5053590;28;20040;-73
2022/06/22 08:55:32;;;;;;;4.53;3.55;;;;;;;;;;5060311;28;20021;-73
2022/06/22 08:58:00;;;;;;;8.77;4.28;;;;;;;;;;5058569;28;20274;-73
2022/06/22 09:00:33;;;;;;;5.13;3.70;;;;;;;;;;5073530;28;20031;-73
2022/06/22 09:03:11;;;;;;;6.80;4.13;;;;;;;;;;5066761;28;20059;-74
2022/06/22 09:05:39;;;;;;;4.38;3.55;;;;;;;;;;5068303;28;20031;-73
2022/06/22 09:08:04;;;;;;;8.68;3.65;;;;;;;;;;5064856;28;20354;-72
2022/06/22 09:10:48;;;;;;;5.60;3.83;;;;;;;;;;5057733;28;20843;-73
2022/06/22 09:13:35;;;;;;;8.18;3.55;;;;;;;;;;5055137;28;20335;-71
2022/06/22 09:16:13;;;;;;;5.13;3.67;;;;;;;;;;5065129;28;20020;-72
2022/06/22 09:19:07;;;;;;;7.63;3.58;;;;;;;;;;5063301;28;20051;-68
2022/06/22 09:21:51;;;;;;;4.53;3.65;;;;;;;;;;5051009;28;20068;-70
2022/06/22 09:24:20;;;;;;;9.43;3.03;;;;;;;;;;5064878;28;20024;-69
2022/06/22 09:26:45;;;;;;;5.97;3.70;;;;;;;;;;5067630;28;20044;-71
2022/06/22 09:29:29;;;;;;;6.35;3.47;;;;;;;;;;5063341;28;20032;-66
2022/06/22 09:31:56;;;;;;;4.93;3.53;;;;;;;;;;5055238;28;20033;-72
2022/06/22 09:34:41;;;;;;;7.57;3.30;;;;;;;;;;5059846;28;20313;-72
2022/06/22 09:37:14;;;;;;;7.93;4.00;;;;;;;;;;5059333;28;20324;-73
2022/06/22 09:39:59;;;;;;;6.03;3.40;;;;;;;;;;5062344;28;20115;-72
2022/06/22 09:42:37;;;;;;;6.60;3.35;;;;;;;;;;5061756;28;20033;-73
2022/06/22 09:45:09;;;;;;;6.95;3.60;;;;;;;;;;5059631;28;20038;-68
2022/06/22 09:47:34;;;;;;;6.28;3.47;;;;;;;;;;5059792;28;20028;-73
2022/06/22 09:50:18;;;;;;;3.20;2.75;;;;;;;;;;5057046;28;20258;-71
2022/06/22 09:53:02;;;;;;;5.80;3.70;;;;;;;;;;5066459;28;20066;-72
2022/06/22 09:58:39;;;;;;;6.75;2.95;;;;;;;;;;5063809;28;20066;-72
2022/06/22 10:01:16;;;;;;;4.63;3.30;;;;;;;;;;5060118;28;20375;-71
2022/06/22 10:03:59;;;;;;;7.25;3.28;;;;;;;;;;5066708;28;20047;-73
2022/06/22 10:06:44;;;;;;;7.50;2.95;;;;;;;;;;5066168;28;20067;-72
2022/06/22 10:09:21;;;;;;;7.05;3.70;;;;;;;;;;5066596;28;20039;-72
2022/06/22 10:11:58;;;;;;;7.63;2.97;;;;;;;;;;5063596;28;20107;-72
2022/06/22 10:14:25;;;;;;;3.28;2.72;;;;;;;;;;5053270;28;20123;-73
2022/06/22 10:17:04;;;;;;;4.55;2.42;;;;;;;;;;5060027;28;20043;-72
2022/06/22 10:19:38;;;;;;;4.45;2.67;;;;;;;;;;5046722;28;20020;-73
2022/06/22 10:22:10;;;;;;;4.35;2.90;;;;;;;;;;5060975;28;20061;-73
2022/06/22 10:24:38;;;;;;;4.65;3.05;;;;;;;;;;5059625;28;20119;-73
2022/06/22 10:27:03;;;;;;;6.18;2.72;;;;;;;;;;5060353;28;20096;-72
2022/06/22 10:29:31;;;;;;;8.63;2.95;;;;;;;;;;5060511;28;20476;-73
2022/06/22 10:31:56;;;;;;;7.90;2.90;;;;;;;;;;5061700;28;20429;-73
2022/06/22 10:34:42;;;;;;;3.47;2.47;;;;;;;;;;5064254;28;20028;-73
2022/06/22 10:37:28;;;;;;;6.20;3.10;;;;;;;;;;5028419;28;20435;-72
2022/06/22 10:40:06;;;;;;;3.30;2.30;;;;;;;;;;5065917;28;20059;-72
2022/06/22 10:45:49;;;;;;;5.03;2.45;;;;;;;;;;5057558;28;20034;-72
2022/06/22 10:48:25;;;;;;;6.80;2.40;;;;;;;;;;5061475;28;20199;-73
2022/06/22 10:50:58;;;;;;;3.35;2.60;;;;;;;;;;5065661;28;20021;-72
2022/06/22 10:53:41;;;;;;;4.47;2.53;;;;;;;;;;5063320;28;20021;-72
2022/06/22 10:56:25;;;;;;;4.55;2.40;;;;;;;;;;5062095;28;20080;-73
2022/06/22 10:59:02;;;;;;;6.05;2.55;;;;;;;;;;5047771;28;20419;-71
2022/06/22 11:01:50;;;;;;;5.15;2.30;;;;;;;;;;5056944;28;20196;-72
2022/06/22 11:04:34;;;;;;;2.92;1.95;;;;;;;;;;5028687;28;20059;-71
2022/06/22 11:06:59;;;;;;;;;;;;;;;;;;5064279;28;20032;-71
2022/06/22 11:09:46;;;;;;;5.28;2.50;;;;;;;;;;5064018;28;19913;-72
2022/06/22 11:12:27;;;;;;;5.78;3.03;;;;;;;;;;5063866;28;20119;-72
2022/06/22 11:14:56;;;;;;;5.40;2.17;;;;;;;;;;5063167;28;20089;-73
2022/06/22 11:17:31;;;;;;;3.20;1.88;;;;;;;;;;5064965;28;20438;-71
2022/06/22 11:20:03;;;;;;;6.97;2.05;;;;;;;;;;5062129;28;20256;-72
2022/06/22 11:22:33;;;;;;;1.85;1.58;;;;;;;;;;5056828;28;20329;-71
2022/06/22 11:24:58;;;;;;;4.93;2.60;;;;;;;;;;5052433;28;20029;-72
2022/06/22 11:30:51;;;;;;;5.05;2.42;;;;;;;;;;5056519;28;20054;-72
2022/06/22 11:33:22;;;;;;;3.78;2.47;;;;;;;;;;5064201;28;20376;-71
2022/06/22 11:35:53;;;;;;;3.13;1.95;;;;;;;;;;5062020;28;20028;-72
2022/06/22 11:38:39;;;;;;;2.80;1.63;;;;;;;;;;5062172;28;20036;-72
2022/06/22 11:41:23;;;;;;;5.93;1.98;;;;;;;;;;5058953;28;20352;-73
2022/06/22 11:44:07;;;;;;;5.78;2.50;;;;;;;;;;5049036;28;20021;-72
2022/06/22 11:46:36;;;;;;;5.40;2.60;;;;;;;;;;5059014;28;20028;-72
2022/06/22 11:49:10;;;;;;;5.00;2.22;;;;;;;;;;5062233;28;20048;-72
2022/06/22 11:51:57;;;;;;;4.15;2.42;;;;;;;;;;5058976;28;20033;-72
2022/06/22 11:54:31;;;;;;;5.55;2.67;;;;;;;;;;5058991;28;20091;-71
2022/06/22 11:56:56;;;;;;;2.63;2.03;;;;;;;;;;5063097;28;20131;-72
2022/06/22 11:59:44;;;;;;;4.97;2.20;;;;;;;;;;5056380;28;20107;-72
2022/06/22 12:02:18;;;;;;;2.95;2.05;;;;;;;;;;5064482;28;20073;-72
2022/06/22 12:04:52;;;;;;;5.78;2.10;;;;;;;;;;5057482;28;20024;-72
2022/06/22 12:07:23;;;;;;;5.55;1.92;;;;;;;;;;5065167;28;20098;-73
2022/06/22 12:09:48;;;;;;;2.35;1.92;;;;;;;;;;5056766;28;20024;-72
2022/06/22 12:12:32;;;;;;;4.50;2.00;;;;;;;;;;5062009;28;20028;-72
2022/06/22 12:15:16;;;;;;;3.58;1.70;;;;;;;;;;5067077;28;20123;-72
2022/06/22 12:17:56;;;;;;;6.20;2.00;;;;;;;;;;5054438;28;20024;-73
2022/06/22 12:20:40;;;;;;;4.60;1.92;;;;;;;;;;5063015;28;20038;-72
2022/06/22 12:23:11;;;;;;;3.78;1.85;;;;;;;;;;5062982;28;20028;-71
2022/06/22 12:25:39;;;;;;;4.90;1.70;;;;;;;;;;5062380;28;20196;-72
2022/06/22 12:28:22;;;;;;;3.20;1.70;;;;;;;;;;5059162;28;20467;-71
2022/06/22 12:31:06;;;;;;;2.38;1.60;;;;;;;;;;5053926;28;20423;-71
2022/06/22 12:33:39;;;;;;;4.10;1.75;;;;;;;;;;5063576;28;20083;-71
2022/06/22 12:36:10;;;;;;;2.50;1.63;;;;;;;;;;5053903;28;20111;-72
2022/06/22 12:38:43;;;;;;;4.82;1.80;;;;;;;;;;5056803;28;20017;-71
2022/06/22 12:41:08;;;;;;;;;;;;;;;;;;5061899;28;20123;-72
2022/06/22 12:43:46;;;;;;;3.22;1.85;;;;;;;;;;5064822;28;20042;-72
2022/06/22 12:46:14;;;;;;;4.70;1.90;;;;;;;;;;5060883;28;20032;-71
2022/06/22 12:48:42;;;;;;;2.65;1.67;;;;;;;;;;5051170;28;20048;-72
2022/06/22 12:51:09;;;;;;;3.90;1.80;;;;;;;;;;5059650;28;20029;-72
2022/06/22 12:53:38;;;;;;;4.55;2.13;;;;;;;;;;5065927;28;20025;-72
2022/06/22 12:56:06;;;;;;;2.00;1.55;;;;;;;;;;5064049;28;20017;-72
2022/06/22 12:58:36;;;;;;;2.85;1.65;;;;;;;;;;5062963;28;20032;-72
2022/06/22 13:01:02;;;;;;;2.50;1.48;;;;;;;;;;5056368;28;20126;-72
2022/06/22 13:03:32;;;;;;;2.45;1.58;;;;;;;;;;5063605;28;20355;-71
2022/06/22 13:05:57;;;;;;;4.10;1.85;;;;;;;;;;5059402;28;20031;-72
2022/06/22 13:08:23;;;;;;;3.53;1.73;;;;;;;;;;5056837;28;20021;-71
2022/06/22 13:10:51;;;;;;;5.10;1.80;;;;;;;;;;5055037;28;20109;-72
2022/06/22 13:13:19;;;;;;;6.80;2.10;;;;;;;;;;5055168;28;20494;-71
2022/06/22 13:15:52;;;;;;;3.65;1.73;;;;;;;;;;5050798;28;20040;-71
2022/06/22 13:18:32;;;;;;;4.18;2.10;;;;;;;;;;5063563;28;20626;-72
2022/06/22 13:21:04;;;;;;;1.75;1.50;;;;;;;;;;5059412;28;20020;-71
2022/06/22 13:23:40;;;;;;;3.65;1.80;;;;;;;;;;5054431;28;20134;-70
2022/06/22 13:26:19;;;;;;;3.33;2.00;;;;;;;;;;5055543;28;20024;-73
2022/06/22 13:29:03;;;;;;;3.17;1.95;;;;;;;;;;5048960;28;20020;-72
2022/06/22 13:31:31;;;;;;;6.18;2.38;;;;;;;;;;5063176;28;20032;-72
2022/06/22 13:34:00;;;;;;;3.90;1.85;;;;;;;;;;5064646;28;20103;-72
2022/06/22 13:36:28;;;;;;;3.15;1.55;;;;;;;;;;5056848;28;20029;-73
2022/06/22 13:38:57;;;;;;;1.92;1.60;;;;;;;;;;5043028;28;20032;-72
2022/06/22 13:41:25;;;;;;;2.05;1.50;;;;;;;;;;5059628;28;20013;-73
2022/06/22 13:43:57;;;;;;;4.15;1.35;;;;;;;;;;5063095;28;20008;-73
2022/06/22 13:46:28;;;;;;;6.20;2.08;;;;;;;;;;5063930;28;20490;-72
2022/06/22 13:49:02;;;;;;;2.75;1.83;;;;;;;;;;5062316;28;20751;-71
2022/06/22 13:51:51;;;;;;;2.40;1.70;;;;;;;;;;5062452;28;20021;-72
2022/06/22 13:54:27;;;;;;;2.95;1.80;;;;;;;;;;5061711;28;20021;-71
2022/06/22 13:56:55;;;;;;;3.50;1.30;;;;;;;;;;5069270;28;20020;-74
2022/06/22 13:59:28;;;;;;;4.63;1.50;;;;;;;;;;5064712;28;20028;-70
2022/06/22 14:01:53;;;;;;;;;;;;;;;;;;5064840;28;20012;-71
2022/06/22 14:04:21;;;;;;;6.15;1.83;;;;;;;;;;5065646;28;19918;-71
2022/06/22 14:07:04;;;;;;;2.03;1.60;;;;;;;;;;5062336;28;20533;-71
2022/06/22 14:09:29;;;;;;;3.38;1.70;;;;;;;;;;5059968;28;20535;-70
2022/06/22 14:12:00;;;;;;;1.63;1.50;;;;;;;;;;5060360;28;20463;-73
2022/06/22 14:14:28;;;;;;;2.95;1.73;;;;;;;;;;5066349;28;20051;-72
2022/06/22 14:17:09;;;;;;;2.75;1.75;;;;;;;;;;5059812;28;20032;-72
2022/06/22 14:19:57;;;;;;;1.75;1.48;;;;;;;;;;5065919;28;20382;-72
2022/06/22 14:22:29;;;;;;;1.67;1.58;;;;;;;;;;5050334;28;20036;-71
2022/06/22 14:24:56;;;;;;;3.10;1.58;;;;;;;;;;5067549;28;20698;-70
2022/06/22 14:27:30;;;;;;;2.70;1.50;;;;;;;;;;5060872;28;20039;-72
2022/06/22 14:30:04;;;;;;;4.82;1.40;;;;;;;;;;5063325;28;20016;-71
2022/06/22 14:32:40;;;;;;;4.50;1.60;;;;;;;;;;5065822;28;20382;-72
2022/06/22 14:35:13;;;;;;;1.52;1.42;;;;;;;;;;5067536;28;20040;-73
2022/06/22 14:37:41;;;;;;;2.85;1.85;;;;;;;;;;5068278;28;20031;-71
2022/06/22 14:40:24;;;;;;;5.65;1.77;;;;;;;;;;5069637;28;20153;-72
2022/06/22 14:42:51;;;;;;;2.15;1.73;;;;;;;;;;5058620;28;20509;-71
2022/06/22 14:45:36;;;;;;;3.53;1.75;;;;;;;;;;5066332;28;20066;-71
2022/06/22 14:48:01;;;;;;;5.25;1.67;;;;;;;;;;5065495;28;20798;-72
2022/06/22 14:50:35;;;;;;;4.20;1.70;;;;;;;;;;5061658;28;20051;-71
2022/06/22 14:53:03;;;;;;;3.70;1.83;;;;;;;;;;5061412;28;20681;-70
2022/06/22 14:55:38;;;;;;;3.08;1.40;;;;;;;;;;5059729;28;20035;-70
2022/06/22 14:58:12;;;;;;;27.17;2.20;;;;;;;;;;5059918;28;20063;-71
2022/06/22 15:00:46;;;;;;;2.92;1.25;;;;;;;;;;5062893;28;20031;-73
2022/06/22 15:03:30;;;;;;;4.50;1.60;;;;;;;;;;5062212;28;20016;-74
2022/06/22 15:06:02;;;;;;;1.40;1.30;;;;;;;;;;5057036;28;20020;-71
2022/06/22 15:08:33;;;;;;;1.58;1.48;;;;;;;;;;5061452;28;20028;-72
2022/06/22 15:12:56;;;;;;;2.42;1.52;;;;;;;;;;5062975;28;20344;-72
2022/06/22 15:13:48;;;;;;;5.30;1.70;;;;;;;;;;5064225;28;20040;-73
2022/06/22 15:16:17;;;;;;;2.65;1.92;;;;;;;;;;5062451;28;20123;-75
2022/06/22 15:19:06;;;;;;;4.50;1.98;;;;;;;;;;5064434;28;20654;-75
2022/06/22 15:21:38;;;;;;;3.38;1.80;;;;;;;;;;5059063;28;20051;-74
2022/06/22 15:24:10;;;;;;;3.70;1.55;;;;;;;;;;5065353;28;20017;-73
2022/06/22 15:26:42;;;;;;;9.05;2.13;;;;;;;;;;5063054;28;20583;-74